sensor_id;sensor_type;location;lat;lon;timestamp;pressure;altitude;pressure_sealevel;temperature;humidity
71392;BME280;59205;50.610;12.638;2022-11-15T00:00:46;95516.28;;;6.84;89.54
71392;BME280;59205;50.610;12.638;2022-11-15T00:03:19;95515.69;;;7.02;89.37
71392;BME280;59205;50.610;12.638;2022-11-15T00:05:45;95514.84;;;6.92;89.62
71392;BME280;59205;50.610;12.638;2022-11-15T00:08:11;95516.34;;;6.60;90.51
71392;BME280;59205;50.610;12.638;2022-11-15T00:10:37;95515.84;;;6.40;91.47
71392;BME280;59205;50.610;12.638;2022-11-15T00:13:06;95515.63;;;6.47;92.60
71392;BME280;59205;50.610;12.638;2022-11-15T00:15:35;95505.25;;;6.58;91.84
71392;BME280;59205;50.610;12.638;2022-11-15T00:18:01;95512.28;;;6.43;92.45
71392;BME280;59205;50.610;12.638;2022-11-15T00:20:26;95512.31;;;6.30;92.83
71392;BME280;59205;50.610;12.638;2022-11-15T00:22:52;95516.38;;;6.47;93.20
71392;BME280;59205;50.610;12.638;2022-11-15T00:25:17;95514.31;;;6.51;93.12
71392;BME280;59205;50.610;12.638;2022-11-15T00:27:43;95512.59;;;6.45;93.39
71392;BME280;59205;50.610;12.638;2022-11-15T00:30:08;95517.59;;;6.34;93.49
71392;BME280;59205;50.610;12.638;2022-11-15T00:32:34;95516.97;;;6.30;93.88
71392;BME280;59205;50.610;12.638;2022-11-15T00:34:59;95514.09;;;6.46;93.04
71392;BME280;59205;50.610;12.638;2022-11-15T00:37:25;95514.44;;;6.35;93.87
71392;BME280;59205;50.610;12.638;2022-11-15T00:39:50;95514.44;;;6.48;93.05
71392;BME280;59205;50.610;12.638;2022-11-15T00:42:16;95507.00;;;6.85;92.08
71392;BME280;59205;50.610;12.638;2022-11-15T00:44:41;95509.03;;;6.60;92.39
71392;BME280;59205;50.610;12.638;2022-11-15T00:47:06;95508.38;;;6.56;93.42
71392;BME280;59205;50.610;12.638;2022-11-15T00:49:32;95509.00;;;6.72;92.72
71392;BME280;59205;50.610;12.638;2022-11-15T00:51:57;95510.06;;;6.75;92.88
71392;BME280;59205;50.610;12.638;2022-11-15T00:54:23;95493.84;;;6.87;91.57
71392;BME280;59205;50.610;12.638;2022-11-15T00:56:51;95497.63;;;7.33;88.98
71392;BME280;59205;50.610;12.638;2022-11-15T00:59:17;95499.44;;;7.57;87.87
71392;BME280;59205;50.610;12.638;2022-11-15T01:01:42;95494.09;;;7.75;86.52
71392;BME280;59205;50.610;12.638;2022-11-15T01:04:07;95492.69;;;7.92;85.47
71392;BME280;59205;50.610;12.638;2022-11-15T01:06:33;95486.72;;;7.97;84.67
71392;BME280;59205;50.610;12.638;2022-11-15T01:08:58;95482.78;;;7.89;84.29
71392;BME280;59205;50.610;12.638;2022-11-15T01:11:24;95483.84;;;7.92;85.11
71392;BME280;59205;50.610;12.638;2022-11-15T01:13:49;95489.06;;;7.86;85.11
71392;BME280;59205;50.610;12.638;2022-11-15T01:16:17;95483.00;;;8.04;83.83
71392;BME280;59205;50.610;12.638;2022-11-15T01:18:44;95486.88;;;8.03;83.92
71392;BME280;59205;50.610;12.638;2022-11-15T01:21:17;95494.81;;;7.97;84.52
71392;BME280;59205;50.610;12.638;2022-11-15T01:23:43;95486.97;;;7.81;85.32
71392;BME280;59205;50.610;12.638;2022-11-15T01:26:11;95481.34;;;8.06;83.72
71392;BME280;59205;50.610;12.638;2022-11-15T01:28:38;95470.47;;;8.19;83.33
71392;BME280;59205;50.610;12.638;2022-11-15T01:31:07;95473.28;;;8.15;83.92
71392;BME280;59205;50.610;12.638;2022-11-15T01:33:35;95466.66;;;8.07;83.48
71392;BME280;59205;50.610;12.638;2022-11-15T01:36:06;95462.59;;;7.94;84.26
71392;BME280;59205;50.610;12.638;2022-11-15T01:38:32;95460.06;;;7.99;84.13
71392;BME280;59205;50.610;12.638;2022-11-15T01:40:57;95460.66;;;8.03;83.99
71392;BME280;59205;50.610;12.638;2022-11-15T01:43:28;95457.41;;;7.78;84.92
71392;BME280;59205;50.610;12.638;2022-11-15T01:46:00;95458.91;;;7.70;85.59
71392;BME280;59205;50.610;12.638;2022-11-15T01:48:32;95451.81;;;7.63;86.00
71392;BME280;59205;50.610;12.638;2022-11-15T01:51:01;95449.72;;;7.67;86.09
71392;BME280;59205;50.610;12.638;2022-11-15T01:53:29;95458.13;;;7.39;87.20
71392;BME280;59205;50.610;12.638;2022-11-15T01:55:57;95455.16;;;7.15;88.28
71392;BME280;59205;50.610;12.638;2022-11-15T01:58:23;95446.56;;;7.08;89.11
71392;BME280;59205;50.610;12.638;2022-11-15T02:00:50;95456.09;;;7.21;88.40
71392;BME280;59205;50.610;12.638;2022-11-15T02:03:16;95458.84;;;6.87;89.33
71392;BME280;59205;50.610;12.638;2022-11-15T02:05:41;95464.47;;;6.80;90.95
71392;BME280;59205;50.610;12.638;2022-11-15T02:08:08;95451.94;;;6.86;90.72
71392;BME280;59205;50.610;12.638;2022-11-15T02:10:45;95460.84;;;6.96;90.57
71392;BME280;59205;50.610;12.638;2022-11-15T02:13:13;95462.00;;;6.86;90.60
71392;BME280;59205;50.610;12.638;2022-11-15T02:18:28;95458.25;;;6.50;93.19
71392;BME280;59205;50.610;12.638;2022-11-15T02:24:35;95450.53;;;6.39;94.37
71392;BME280;59205;50.610;12.638;2022-11-15T02:32:35;95449.94;;;6.57;93.74
71392;BME280;59205;50.610;12.638;2022-11-15T02:37:46;95435.91;;;6.62;93.64
71392;BME280;59205;50.610;12.638;2022-11-15T02:40:41;95441.75;;;6.60;93.58
71392;BME280;59205;50.610;12.638;2022-11-15T02:43:12;95430.91;;;6.94;92.32
71392;BME280;59205;50.610;12.638;2022-11-15T02:46:13;95432.03;;;7.27;89.98
71392;BME280;59205;50.610;12.638;2022-11-15T02:48:41;95438.34;;;7.63;88.34
71392;BME280;59205;50.610;12.638;2022-11-15T02:51:09;95430.13;;;7.67;87.51
71392;BME280;59205;50.610;12.638;2022-11-15T02:53:35;95425.16;;;7.65;87.90
71392;BME280;59205;50.610;12.638;2022-11-15T02:56:00;95426.63;;;7.57;87.81
71392;BME280;59205;50.610;12.638;2022-11-15T03:01:47;95427.44;;;7.36;88.94
71392;BME280;59205;50.610;12.638;2022-11-15T03:06:53;95420.69;;;7.41;89.46
71392;BME280;59205;50.610;12.638;2022-11-15T03:09:34;95418.31;;;7.43;89.28
71392;BME280;59205;50.610;12.638;2022-11-15T03:12:43;95414.56;;;7.40;89.12
71392;BME280;59205;50.610;12.638;2022-11-15T03:15:21;95409.50;;;7.42;89.35
71392;BME280;59205;50.610;12.638;2022-11-15T03:20:19;95408.31;;;7.22;89.91
71392;BME280;59205;50.610;12.638;2022-11-15T03:22:47;95400.69;;;7.20;90.25
71392;BME280;59205;50.610;12.638;2022-11-15T03:25:19;95402.91;;;7.43;89.09
71392;BME280;59205;50.610;12.638;2022-11-15T03:27:51;95402.97;;;7.61;88.40
71392;BME280;59205;50.610;12.638;2022-11-15T03:30:19;95398.88;;;7.48;88.44
71392;BME280;59205;50.610;12.638;2022-11-15T03:32:47;95402.00;;;7.37;89.85
71392;BME280;59205;50.610;12.638;2022-11-15T03:35:18;95404.69;;;7.37;89.85
71392;BME280;59205;50.610;12.638;2022-11-15T03:40:17;95396.78;;;6.91;91.42
71392;BME280;59205;50.610;12.638;2022-11-15T03:43:07;95397.28;;;6.77;92.05
71392;BME280;59205;50.610;12.638;2022-11-15T03:45:48;95392.84;;;6.62;93.68
71392;BME280;59205;50.610;12.638;2022-11-15T03:48:24;95395.84;;;6.85;93.47
71392;BME280;59205;50.610;12.638;2022-11-15T03:50:51;95392.66;;;6.77;93.01
71392;BME280;59205;50.610;12.638;2022-11-15T03:53:16;95390.47;;;6.64;94.05
71392;BME280;59205;50.610;12.638;2022-11-15T03:55:42;95385.94;;;6.61;93.91
71392;BME280;59205;50.610;12.638;2022-11-15T03:58:07;95391.13;;;6.34;94.96
71392;BME280;59205;50.610;12.638;2022-11-15T04:00:33;95387.16;;;6.26;96.16
71392;BME280;59205;50.610;12.638;2022-11-15T04:02:59;95388.88;;;6.32;95.68
71392;BME280;59205;50.610;12.638;2022-11-15T04:05:24;95391.50;;;6.23;96.81
71392;BME280;59205;50.610;12.638;2022-11-15T04:07:50;95398.63;;;6.39;96.56
71392;BME280;59205;50.610;12.638;2022-11-15T04:10:15;95390.78;;;6.44;95.83
71392;BME280;59205;50.610;12.638;2022-11-15T04:12:42;95385.94;;;6.39;95.87
71392;BME280;59205;50.610;12.638;2022-11-15T04:15:21;95392.53;;;6.26;96.04
71392;BME280;59205;50.610;12.638;2022-11-15T04:17:50;95390.66;;;6.14;97.06
71392;BME280;59205;50.610;12.638;2022-11-15T04:20:25;95392.78;;;6.19;96.90
71392;BME280;59205;50.610;12.638;2022-11-15T04:23:15;95388.66;;;6.27;96.11
71392;BME280;59205;50.610;12.638;2022-11-15T04:26:03;95381.66;;;5.95;96.82
71392;BME280;59205;50.610;12.638;2022-11-15T04:28:28;95381.13;;;6.00;97.16
71392;BME280;59205;50.610;12.638;2022-11-15T04:30:54;95383.63;;;5.70;98.25
71392;BME280;59205;50.610;12.638;2022-11-15T04:33:19;95378.75;;;6.02;98.19
71392;BME280;59205;50.610;12.638;2022-11-15T04:35:45;95380.38;;;5.75;98.20
71392;BME280;59205;50.610;12.638;2022-11-15T04:38:30;95373.06;;;5.63;97.57
71392;BME280;59205;50.610;12.638;2022-11-15T04:40:56;95377.28;;;5.76;98.22
71392;BME280;59205;50.610;12.638;2022-11-15T04:43:21;95375.84;;;5.97;98.19
71392;BME280;59205;50.610;12.638;2022-11-15T04:45:47;95373.88;;;6.10;96.48
71392;BME280;59205;50.610;12.638;2022-11-15T04:48:12;95377.97;;;6.02;96.65
71392;BME280;59205;50.610;12.638;2022-11-15T04:50:38;95374.53;;;6.35;95.56
71392;BME280;59205;50.610;12.638;2022-11-15T04:53:03;95368.50;;;6.10;95.58
71392;BME280;59205;50.610;12.638;2022-11-15T04:55:29;95372.28;;;6.34;93.27
71392;BME280;59205;50.610;12.638;2022-11-15T04:58:01;95370.16;;;6.29;94.55
71392;BME280;59205;50.610;12.638;2022-11-15T05:00:27;95366.91;;;6.34;93.94
71392;BME280;59205;50.610;12.638;2022-11-15T05:02:54;95369.81;;;6.61;92.52
71392;BME280;59205;50.610;12.638;2022-11-15T05:05:38;95367.69;;;6.56;92.13
71392;BME280;59205;50.610;12.638;2022-11-15T05:08:03;95366.66;;;6.41;92.39
71392;BME280;59205;50.610;12.638;2022-11-15T05:10:29;95360.53;;;6.40;92.94
71392;BME280;59205;50.610;12.638;2022-11-15T05:12:55;95363.72;;;6.48;92.55
71392;BME280;59205;50.610;12.638;2022-11-15T05:15:20;95360.28;;;6.47;92.77
71392;BME280;59205;50.610;12.638;2022-11-15T05:17:46;95352.22;;;6.47;92.63
71392;BME280;59205;50.610;12.638;2022-11-15T05:20:12;95360.09;;;6.42;93.05
71392;BME280;59205;50.610;12.638;2022-11-15T05:22:38;95355.38;;;6.33;92.53
71392;BME280;59205;50.610;12.638;2022-11-15T05:25:03;95357.94;;;5.69;95.43
71392;BME280;59205;50.610;12.638;2022-11-15T05:27:29;95354.38;;;5.72;96.51
71392;BME280;59205;50.610;12.638;2022-11-15T05:29:54;95353.09;;;5.39;97.06
71392;BME280;59205;50.610;12.638;2022-11-15T05:32:20;95356.88;;;5.41;97.55
71392;BME280;59205;50.610;12.638;2022-11-15T05:34:46;95357.75;;;5.38;97.84
71392;BME280;59205;50.610;12.638;2022-11-15T05:37:12;95351.84;;;5.31;98.35
71392;BME280;59205;50.610;12.638;2022-11-15T05:39:38;95359.66;;;5.38;98.39
71392;BME280;59205;50.610;12.638;2022-11-15T05:42:12;95351.19;;;5.39;98.94
71392;BME280;59205;50.610;12.638;2022-11-15T05:44:41;95343.75;;;5.43;99.06
71392;BME280;59205;50.610;12.638;2022-11-15T05:47:09;95352.88;;;5.83;97.77
71392;BME280;59205;50.610;12.638;2022-11-15T05:49:38;95351.19;;;5.52;97.56
71392;BME280;59205;50.610;12.638;2022-11-15T05:52:06;95349.22;;;5.40;98.50
71392;BME280;59205;50.610;12.638;2022-11-15T05:54:33;95352.47;;;5.35;99.24
71392;BME280;59205;50.610;12.638;2022-11-15T05:56:59;95356.66;;;5.36;99.59
71392;BME280;59205;50.610;12.638;2022-11-15T05:59:25;95358.28;;;5.33;98.85
71392;BME280;59205;50.610;12.638;2022-11-15T06:01:53;95354.50;;;5.31;99.16
71392;BME280;59205;50.610;12.638;2022-11-15T06:04:18;95356.75;;;5.20;99.30
71392;BME280;59205;50.610;12.638;2022-11-15T06:06:43;95356.03;;;5.32;98.88
71392;BME280;59205;50.610;12.638;2022-11-15T06:09:09;95356.66;;;5.23;98.71
71392;BME280;59205;50.610;12.638;2022-11-15T06:11:34;95355.38;;;5.28;98.57
71392;BME280;59205;50.610;12.638;2022-11-15T06:14:00;95362.03;;;5.23;99.16
71392;BME280;59205;50.610;12.638;2022-11-15T06:16:25;95363.31;;;5.31;99.71
71392;BME280;59205;50.610;12.638;2022-11-15T06:18:50;95362.56;;;5.43;98.69
71392;BME280;59205;50.610;12.638;2022-11-15T06:21:16;95364.84;;;5.45;98.37
71392;BME280;59205;50.610;12.638;2022-11-15T06:23:41;95358.03;;;5.53;97.73
71392;BME280;59205;50.610;12.638;2022-11-15T06:26:07;95365.47;;;5.49;97.41
71392;BME280;59205;50.610;12.638;2022-11-15T06:28:33;95363.53;;;5.49;97.29
71392;BME280;59205;50.610;12.638;2022-11-15T06:31:09;95359.66;;;5.50;97.16
71392;BME280;59205;50.610;12.638;2022-11-15T06:33:39;95366.00;;;5.69;96.34
71392;BME280;59205;50.610;12.638;2022-11-15T06:36:07;95366.97;;;5.62;95.60
71392;BME280;59205;50.610;12.638;2022-11-15T06:38:33;95370.19;;;5.82;95.19
71392;BME280;59205;50.610;12.638;2022-11-15T06:41:03;95364.03;;;6.28;93.28
71392;BME280;59205;50.610;12.638;2022-11-15T06:43:29;95368.84;;;6.76;88.78
71392;BME280;59205;50.610;12.638;2022-11-15T06:45:55;95380.38;;;7.28;85.11
71392;BME280;59205;50.610;12.638;2022-11-15T06:48:20;95374.38;;;7.24;84.48
71392;BME280;59205;50.610;12.638;2022-11-15T06:50:52;95374.88;;;7.89;81.31
71392;BME280;59205;50.610;12.638;2022-11-15T06:53:18;95366.84;;;7.98;81.22
71392;BME280;59205;50.610;12.638;2022-11-15T06:55:46;95373.81;;;7.78;80.27
71392;BME280;59205;50.610;12.638;2022-11-15T06:58:11;95367.41;;;7.84;80.28
71392;BME280;59205;50.610;12.638;2022-11-15T07:00:37;95374.94;;;8.16;78.90
71392;BME280;59205;50.610;12.638;2022-11-15T07:03:03;95378.59;;;8.49;76.62
71392;BME280;59205;50.610;12.638;2022-11-15T07:05:29;95368.31;;;9.07;74.17
71392;BME280;59205;50.610;12.638;2022-11-15T07:07:55;95371.94;;;8.95;74.11
71392;BME280;59205;50.610;12.638;2022-11-15T07:10:22;95371.91;;;9.54;71.64
71392;BME280;59205;50.610;12.638;2022-11-15T07:12:52;95370.94;;;9.99;70.16
71392;BME280;59205;50.610;12.638;2022-11-15T07:15:20;95376.63;;;10.33;68.05
71392;BME280;59205;50.610;12.638;2022-11-15T07:17:45;95375.16;;;10.46;66.84
71392;BME280;59205;50.610;12.638;2022-11-15T07:20:12;95372.72;;;10.11;67.41
71392;BME280;59205;50.610;12.638;2022-11-15T07:22:41;95371.47;;;9.56;69.63
71392;BME280;59205;50.610;12.638;2022-11-15T07:25:08;95376.47;;;8.89;72.88
71392;BME280;59205;50.610;12.638;2022-11-15T07:27:34;95380.38;;;8.61;75.09
71392;BME280;59205;50.610;12.638;2022-11-15T07:30:00;95366.28;;;8.66;74.00
71392;BME280;59205;50.610;12.638;2022-11-15T07:32:26;95377.84;;;8.57;74.69
71392;BME280;59205;50.610;12.638;2022-11-15T07:34:51;95369.28;;;8.59;75.19
71392;BME280;59205;50.610;12.638;2022-11-15T07:37:17;95362.94;;;8.98;73.98
71392;BME280;59205;50.610;12.638;2022-11-15T07:39:43;95373.13;;;8.13;77.80
71392;BME280;59205;50.610;12.638;2022-11-15T07:42:11;95365.56;;;8.30;76.82
71392;BME280;59205;50.610;12.638;2022-11-15T07:44:58;95361.78;;;8.36;76.48
71392;BME280;59205;50.610;12.638;2022-11-15T07:47:23;95364.63;;;8.42;76.19
71392;BME280;59205;50.610;12.638;2022-11-15T07:49:49;95364.31;;;8.48;76.01
71392;BME280;59205;50.610;12.638;2022-11-15T07:52:14;95361.50;;;8.43;75.76
71392;BME280;59205;50.610;12.638;2022-11-15T07:54:40;95360.00;;;8.42;76.52
71392;BME280;59205;50.610;12.638;2022-11-15T07:57:05;95362.22;;;8.43;76.58
71392;BME280;59205;50.610;12.638;2022-11-15T07:59:32;95358.63;;;8.46;77.15
71392;BME280;59205;50.610;12.638;2022-11-15T08:01:58;95349.78;;;8.46;77.16
71392;BME280;59205;50.610;12.638;2022-11-15T08:04:24;95342.44;;;8.46;78.57
71392;BME280;59205;50.610;12.638;2022-11-15T08:06:50;95344.09;;;8.62;79.72
71392;BME280;59205;50.610;12.638;2022-11-15T08:09:15;95345.59;;;8.45;79.44
71392;BME280;59205;50.610;12.638;2022-11-15T08:11:41;95350.03;;;8.12;80.55
71392;BME280;59205;50.610;12.638;2022-11-15T08:14:07;95353.44;;;7.86;81.31
71392;BME280;59205;50.610;12.638;2022-11-15T08:16:32;95360.22;;;7.42;83.58
71392;BME280;59205;50.610;12.638;2022-11-15T08:18:58;95359.41;;;7.72;83.24
71392;BME280;59205;50.610;12.638;2022-11-15T08:21:24;95359.56;;;7.68;84.02
71392;BME280;59205;50.610;12.638;2022-11-15T08:23:49;95360.84;;;8.03;82.74
71392;BME280;59205;50.610;12.638;2022-11-15T08:26:15;95355.81;;;8.41;80.55
71392;BME280;59205;50.610;12.638;2022-11-15T08:28:41;95357.00;;;8.49;80.40
71392;BME280;59205;50.610;12.638;2022-11-15T08:31:06;95349.19;;;8.69;79.74
71392;BME280;59205;50.610;12.638;2022-11-15T08:33:32;95347.81;;;8.82;79.68
71392;BME280;59205;50.610;12.638;2022-11-15T08:35:59;95340.56;;;8.97;77.40
71392;BME280;59205;50.610;12.638;2022-11-15T08:38:26;95342.94;;;9.04;77.69
71392;BME280;59205;50.610;12.638;2022-11-15T08:41:00;95345.44;;;9.26;76.23
71392;BME280;59205;50.610;12.638;2022-11-15T08:43:26;95343.91;;;9.25;77.91
71392;BME280;59205;50.610;12.638;2022-11-15T08:45:55;95332.16;;;9.37;75.57
71392;BME280;59205;50.610;12.638;2022-11-15T08:48:21;95332.66;;;9.59;75.29
71392;BME280;59205;50.610;12.638;2022-11-15T08:50:47;95329.59;;;9.75;73.88
71392;BME280;59205;50.610;12.638;2022-11-15T08:53:12;95330.41;;;9.90;73.44
71392;BME280;59205;50.610;12.638;2022-11-15T08:55:39;95326.22;;;10.12;71.85
71392;BME280;59205;50.610;12.638;2022-11-15T08:58:05;95334.50;;;10.32;71.63
71392;BME280;59205;50.610;12.638;2022-11-15T09:00:30;95329.13;;;10.61;70.15
71392;BME280;59205;50.610;12.638;2022-11-15T09:02:56;95322.59;;;10.67;71.90
71392;BME280;59205;50.610;12.638;2022-11-15T09:05:21;95324.22;;;10.88;69.39
71392;BME280;59205;50.610;12.638;2022-11-15T09:07:47;95315.50;;;11.13;68.48
71392;BME280;59205;50.610;12.638;2022-11-15T09:10:12;95324.50;;;11.19;69.33
71392;BME280;59205;50.610;12.638;2022-11-15T09:12:38;95317.34;;;11.36;68.93
71392;BME280;59205;50.610;12.638;2022-11-15T09:15:05;95318.28;;;11.62;66.74
71392;BME280;59205;50.610;12.638;2022-11-15T09:17:31;95318.94;;;11.92;65.76
71392;BME280;59205;50.610;12.638;2022-11-15T09:19:56;95310.16;;;11.82;64.00
71392;BME280;59205;50.610;12.638;2022-11-15T09:22:22;95316.16;;;12.26;62.33
71392;BME280;59205;50.610;12.638;2022-11-15T09:24:48;95316.75;;;13.32;60.36
71392;BME280;59205;50.610;12.638;2022-11-15T09:27:14;95313.69;;;15.36;54.36
71392;BME280;59205;50.610;12.638;2022-11-15T09:29:42;95320.16;;;17.41;48.51
71392;BME280;59205;50.610;12.638;2022-11-15T09:32:08;95309.94;;;17.95;46.44
71392;BME280;59205;50.610;12.638;2022-11-15T09:34:34;95312.97;;;18.16;44.98
71392;BME280;59205;50.610;12.638;2022-11-15T09:37:03;95316.00;;;18.97;41.40
71392;BME280;59205;50.610;12.638;2022-11-15T09:39:28;95312.34;;;19.07;41.57
71392;BME280;59205;50.610;12.638;2022-11-15T09:42:10;95312.22;;;18.63;42.33
71392;BME280;59205;50.610;12.638;2022-11-15T09:45:22;95308.06;;;20.32;39.50
71392;BME280;59205;50.610;12.638;2022-11-15T09:50:44;95308.44;;;20.62;38.09
71392;BME280;59205;50.610;12.638;2022-11-15T09:53:18;95297.72;;;19.68;39.70
71392;BME280;59205;50.610;12.638;2022-11-15T09:55:54;95295.59;;;19.74;40.83
71392;BME280;59205;50.610;12.638;2022-11-15T10:01:08;95300.00;;;22.01;35.51
71392;BME280;59205;50.610;12.638;2022-11-15T10:03:40;95289.88;;;21.01;37.33
71392;BME280;59205;50.610;12.638;2022-11-15T10:06:10;95293.81;;;20.80;38.03
71392;BME280;59205;50.610;12.638;2022-11-15T10:09:03;95282.97;;;22.38;34.49
71392;BME280;59205;50.610;12.638;2022-11-15T10:11:40;95287.13;;;19.72;39.47
71392;BME280;59205;50.610;12.638;2022-11-15T10:14:11;95281.59;;;21.35;36.32
71392;BME280;59205;50.610;12.638;2022-11-15T10:24:41;95271.19;;;19.83;40.51
71392;BME280;59205;50.610;12.638;2022-11-15T10:27:14;95271.44;;;19.67;40.73
71392;BME280;59205;50.610;12.638;2022-11-15T10:29:44;95263.69;;;20.10;39.20
71392;BME280;59205;50.610;12.638;2022-11-15T10:32:11;95267.72;;;20.35;39.17
71392;BME280;59205;50.610;12.638;2022-11-15T10:34:37;95259.38;;;20.73;37.65
71392;BME280;59205;50.610;12.638;2022-11-15T10:37:03;95254.00;;;19.64;39.55
71392;BME280;59205;50.610;12.638;2022-11-15T10:39:29;95249.44;;;19.54;40.53
71392;BME280;59205;50.610;12.638;2022-11-15T10:41:55;95257.09;;;21.11;36.63
71392;BME280;59205;50.610;12.638;2022-11-15T10:44:31;95234.50;;;18.87;40.45
71392;BME280;59205;50.610;12.638;2022-11-15T10:49:27;95235.25;;;20.07;38.57
71392;BME280;59205;50.610;12.638;2022-11-15T10:51:59;95232.41;;;21.05;36.75
71392;BME280;59205;50.610;12.638;2022-11-15T10:54:30;95227.09;;;19.13;39.03
71392;BME280;59205;50.610;12.638;2022-11-15T10:57:00;95225.59;;;19.30;39.21
71392;BME280;59205;50.610;12.638;2022-11-15T10:59:32;95225.31;;;19.15;39.41
71392;BME280;59205;50.610;12.638;2022-11-15T11:01:59;95228.09;;;18.97;39.49
71392;BME280;59205;50.610;12.638;2022-11-15T11:04:25;95220.94;;;18.76;40.01
71392;BME280;59205;50.610;12.638;2022-11-15T11:09:22;95218.81;;;19.18;39.02
71392;BME280;59205;50.610;12.638;2022-11-15T11:11:50;95217.34;;;20.14;37.32
71392;BME280;59205;50.610;12.638;2022-11-15T11:14:42;95211.66;;;19.10;39.01
71392;BME280;59205;50.610;12.638;2022-11-15T11:17:30;95211.19;;;19.69;37.93
71392;BME280;59205;50.610;12.638;2022-11-15T11:20:29;95204.91;;;19.11;39.79
71392;BME280;59205;50.610;12.638;2022-11-15T11:25:40;95194.13;;;19.44;37.33
71392;BME280;59205;50.610;12.638;2022-11-15T11:29:04;95189.59;;;19.47;37.59
71392;BME280;59205;50.610;12.638;2022-11-15T11:31:29;95185.09;;;19.18;38.44
71392;BME280;59205;50.610;12.638;2022-11-15T11:39:54;95173.16;;;19.28;38.42
71392;BME280;59205;50.610;12.638;2022-11-15T11:47:56;95165.19;;;19.12;39.35
71392;BME280;59205;50.610;12.638;2022-11-15T11:50:26;95161.88;;;19.32;38.41
71392;BME280;59205;50.610;12.638;2022-11-15T11:53:14;95166.00;;;20.16;38.13
71392;BME280;59205;50.610;12.638;2022-11-15T11:58:19;95161.44;;;20.98;35.36
71392;BME280;59205;50.610;12.638;2022-11-15T12:00:52;95151.38;;;19.17;39.28
71392;BME280;59205;50.610;12.638;2022-11-15T12:03:38;95157.44;;;19.81;38.02
71392;BME280;59205;50.610;12.638;2022-11-15T12:08:45;95151.44;;;19.12;38.52
71392;BME280;59205;50.610;12.638;2022-11-15T12:14:03;95148.78;;;19.90;38.78
71392;BME280;59205;50.610;12.638;2022-11-15T12:16:32;95149.00;;;19.92;37.73
71392;BME280;59205;50.610;12.638;2022-11-15T12:19:02;95139.72;;;20.95;35.46
71392;BME280;59205;50.610;12.638;2022-11-15T12:24:21;95138.91;;;22.77;32.50
71392;BME280;59205;50.610;12.638;2022-11-15T12:29:35;95121.06;;;22.28;32.55
71392;BME280;59205;50.610;12.638;2022-11-15T12:32:11;95120.06;;;21.67;34.30
71392;BME280;59205;50.610;12.638;2022-11-15T12:34:44;95123.91;;;22.00;33.65
71392;BME280;59205;50.610;12.638;2022-11-15T12:45:42;95113.00;;;21.59;33.35
71392;BME280;59205;50.610;12.638;2022-11-15T12:58:59;95106.34;;;22.25;32.46
71392;BME280;59205;50.610;12.638;2022-11-15T13:12:09;95094.03;;;21.83;33.61
71392;BME280;59205;50.610;12.638;2022-11-15T13:14:50;95088.00;;;20.47;36.05
71392;BME280;59205;50.610;12.638;2022-11-15T13:17:23;95088.13;;;20.62;35.34
71392;BME280;59205;50.610;12.638;2022-11-15T13:25:46;95091.63;;;19.96;37.00
71392;BME280;59205;50.610;12.638;2022-11-15T13:31:02;95094.84;;;19.61;38.33
71392;BME280;59205;50.610;12.638;2022-11-15T13:36:01;95078.69;;;18.74;39.78
71392;BME280;59205;50.610;12.638;2022-11-15T13:40:55;95085.09;;;18.32;40.80
71392;BME280;59205;50.610;12.638;2022-11-15T13:46:10;95082.41;;;18.90;39.50
71392;BME280;59205;50.610;12.638;2022-11-15T13:48:35;95085.25;;;17.84;41.28
71392;BME280;59205;50.610;12.638;2022-11-15T13:51:24;95076.66;;;16.20;44.53
71392;BME280;59205;50.610;12.638;2022-11-15T13:54:29;95077.06;;;15.43;46.37
71392;BME280;59205;50.610;12.638;2022-11-15T13:56:59;95078.66;;;15.12;46.77
71392;BME280;59205;50.610;12.638;2022-11-15T13:59:29;95074.69;;;15.02;47.49
71392;BME280;59205;50.610;12.638;2022-11-15T14:01:58;95079.44;;;14.85;47.91
71392;BME280;59205;50.610;12.638;2022-11-15T14:04:27;95079.50;;;14.57;48.09
71392;BME280;59205;50.610;12.638;2022-11-15T14:06:57;95071.56;;;14.48;48.98
71392;BME280;59205;50.610;12.638;2022-11-15T14:09:31;95068.84;;;14.37;48.56
71392;BME280;59205;50.610;12.638;2022-11-15T14:12:01;95063.38;;;14.26;49.49
71392;BME280;59205;50.610;12.638;2022-11-15T14:14:28;95059.13;;;14.14;50.55
71392;BME280;59205;50.610;12.638;2022-11-15T14:16:58;95063.09;;;14.13;50.29
71392;BME280;59205;50.610;12.638;2022-11-15T14:22:09;95052.44;;;13.88;51.28
71392;BME280;59205;50.610;12.638;2022-11-15T14:24:36;95056.16;;;14.01;50.69
71392;BME280;59205;50.610;12.638;2022-11-15T14:27:28;95055.56;;;13.48;52.69
71392;BME280;59205;50.610;12.638;2022-11-15T14:29:54;95053.81;;;13.51;52.00
71392;BME280;59205;50.610;12.638;2022-11-15T14:32:24;95052.59;;;13.52;51.60
71392;BME280;59205;50.610;12.638;2022-11-15T14:35:17;95050.56;;;13.36;52.76
71392;BME280;59205;50.610;12.638;2022-11-15T14:37:44;95042.59;;;13.21;52.94
71392;BME280;59205;50.610;12.638;2022-11-15T14:40:13;95039.28;;;13.01;54.99
71392;BME280;59205;50.610;12.638;2022-11-15T14:42:39;95037.16;;;13.21;53.34
71392;BME280;59205;50.610;12.638;2022-11-15T14:45:19;95039.34;;;13.12;54.19
71392;BME280;59205;50.610;12.638;2022-11-15T14:47:46;95031.63;;;13.05;54.53
71392;BME280;59205;50.610;12.638;2022-11-15T14:50:19;95028.41;;;13.01;54.58
71392;BME280;59205;50.610;12.638;2022-11-15T14:52:46;95016.75;;;12.95;55.12
71392;BME280;59205;50.610;12.638;2022-11-15T14:55:27;95017.44;;;12.84;55.68
71392;BME280;59205;50.610;12.638;2022-11-15T14:57:54;95023.06;;;12.75;55.87
71392;BME280;59205;50.610;12.638;2022-11-15T15:00:20;95006.94;;;12.66;56.18
71392;BME280;59205;50.610;12.638;2022-11-15T15:02:47;95010.84;;;12.60;56.57
71392;BME280;59205;50.610;12.638;2022-11-15T15:05:15;95014.03;;;12.53;56.92
71392;BME280;59205;50.610;12.638;2022-11-15T15:07:41;95004.53;;;12.32;58.20
71392;BME280;59205;50.610;12.638;2022-11-15T15:10:07;95003.44;;;12.18;58.74